createdAt,value
2023-03-06T00:03:46.227Z,0.79
2023-03-06T00:08:48.935Z,0.85
2023-03-06T00:13:53.183Z,0.99
2023-03-06T00:18:55.792Z,0.94
2023-03-06T00:23:59.330Z,1.00
2023-03-06T00:29:03.213Z,1.09
2023-03-06T00:34:06.055Z,1.22
2023-03-06T00:39:08.693Z,1.30
2023-03-06T00:44:12.723Z,1.37
2023-03-06T00:49:15.277Z,1.44
2023-03-06T00:54:17.870Z,1.45
2023-03-06T00:59:21.905Z,1.43
2023-03-06T01:04:24.704Z,1.40
2023-03-06T01:09:27.289Z,1.29
2023-03-06T01:14:32.250Z,1.09
2023-03-06T01:19:34.841Z,0.82
2023-03-06T01:24:37.362Z,0.53
2023-03-06T01:29:41.561Z,0.28
2023-03-06T01:34:44.139Z,0.09
2023-03-06T01:39:46.776Z,0.08
2023-03-06T01:45:31.446Z,0.14
2023-03-06T01:50:35.461Z,0.10
2023-03-06T01:55:38.377Z,0.09
2023-03-06T02:00:41.037Z,0.04
2023-03-06T02:05:45.259Z,-0.04
2023-03-06T02:10:58.625Z,0.00
2023-03-06T02:16:01.871Z,0.04
2023-03-06T02:21:08.570Z,0.09
2023-03-06T02:26:13.342Z,0.08
2023-03-06T02:31:22.472Z,-0.02
2023-03-06T02:36:25.049Z,-0.12
2023-03-06T02:41:29.127Z,-0.14
2023-03-06T02:46:31.790Z,-0.09
2023-03-06T02:51:34.520Z,-0.04
2023-03-06T02:56:38.451Z,0.01
2023-03-06T03:01:41.079Z,0.02
2023-03-06T03:06:43.644Z,0.09
2023-03-06T03:11:47.542Z,0.19
2023-03-06T03:16:50.047Z,0.29
2023-03-06T03:21:52.623Z,0.36
2023-03-06T03:26:56.555Z,0.42
2023-03-06T03:31:59.198Z,0.44
2023-03-06T03:37:01.784Z,0.46
2023-03-06T03:42:06.050Z,0.50
2023-03-06T03:47:08.608Z,0.52
2023-03-06T03:52:11.155Z,0.55
2023-03-06T03:57:15.035Z,0.60
2023-03-06T04:02:18.070Z,0.64
2023-03-06T04:07:20.668Z,0.66
2023-03-06T04:12:24.560Z,0.71
2023-03-06T04:17:27.216Z,0.75
2023-03-06T04:22:29.783Z,0.78
2023-03-06T04:27:33.713Z,0.82
2023-03-06T04:32:36.390Z,0.86
2023-03-06T04:37:39.111Z,0.85
2023-03-06T04:42:43.265Z,0.88
2023-03-06T04:47:45.923Z,0.91
2023-03-06T04:52:48.675Z,0.90
2023-03-06T04:57:52.628Z,0.95
2023-03-06T05:02:55.178Z,0.99
2023-03-06T05:07:57.967Z,0.97
2023-03-06T05:13:01.914Z,1.04
2023-03-06T05:18:05.079Z,1.02
2023-03-06T05:23:07.615Z,0.99
2023-03-06T05:28:11.512Z,0.90
2023-03-06T05:33:14.078Z,0.93
2023-03-06T05:38:17.412Z,0.82
2023-03-06T05:43:21.392Z,0.77
2023-03-06T05:48:23.967Z,0.76
2023-03-06T05:53:27.113Z,0.77
2023-03-06T05:58:32.678Z,0.79
2023-03-06T06:03:35.641Z,0.79
2023-03-06T06:08:39.015Z,0.85
2023-03-06T06:13:43.029Z,0.87
2023-03-06T06:18:45.859Z,0.91
2023-03-06T06:23:48.408Z,0.98
2023-03-06T06:28:52.329Z,1.02
2023-03-06T06:33:54.979Z,1.07
2023-03-06T06:38:57.782Z,1.15
2023-03-06T06:44:02.095Z,1.20
2023-03-06T06:49:05.452Z,1.19
2023-03-06T06:54:08.570Z,1.28
2023-03-06T06:59:17.322Z,1.29
2023-03-06T07:04:21.148Z,1.36
2023-03-06T07:09:23.733Z,1.47
2023-03-06T07:14:28.712Z,1.65
2023-03-06T07:19:31.287Z,1.85
2023-03-06T07:24:34.084Z,2.00
2023-03-06T07:29:37.991Z,2.01
2023-03-06T07:34:40.745Z,2.12
2023-03-06T07:39:43.311Z,2.06
2023-03-06T07:44:47.203Z,2.07
2023-03-06T07:49:49.782Z,2.26
2023-03-06T07:54:52.379Z,2.36
2023-03-06T07:59:56.333Z,2.56
2023-03-06T08:04:58.883Z,3.00
2023-03-06T08:10:02.483Z,4.41
2023-03-06T08:15:06.891Z,4.41
2023-03-06T08:20:11.312Z,3.76
2023-03-06T08:25:14.372Z,3.25
2023-03-06T08:30:21.483Z,3.04
2023-03-06T08:35:24.145Z,3.07
2023-03-06T08:40:30.402Z,3.04
2023-03-06T08:45:34.298Z,3.35
2023-03-06T08:50:36.944Z,4.21
2023-03-06T08:55:40.184Z,6.29
2023-03-06T09:00:44.260Z,7.49
2023-03-06T09:05:47.196Z,8.48
2023-03-06T09:10:50.037Z,7.02
2023-03-06T09:15:54.128Z,7.44
2023-03-06T09:20:56.917Z,7.34
2023-03-06T09:26:00.910Z,6.76
2023-03-06T09:31:08.726Z,7.64
2023-03-06T09:36:15.604Z,10.41
2023-03-06T09:41:26.541Z,11.74
2023-03-06T09:46:39.581Z,11.95
2023-03-06T09:51:52.678Z,9.79
2023-03-06T09:56:55.281Z,10.18
2023-03-06T10:02:10.605Z,10.27
2023-03-06T10:07:19.271Z,9.76
2023-03-06T10:12:24.991Z,8.38
2023-03-06T10:17:35.720Z,7.19
2023-03-06T10:22:48.016Z,7.03
2023-03-06T10:28:02.307Z,8.69
2023-03-06T10:33:12.939Z,9.77
2023-03-06T10:38:21.667Z,10.49
2023-03-06T10:43:24.553Z,9.71
2023-03-06T10:48:30.634Z,9.57
2023-03-06T10:53:33.322Z,9.23
2023-03-06T10:58:35.873Z,8.18
2023-03-06T11:03:39.807Z,7.66
2023-03-06T11:08:44.319Z,7.66
2023-03-06T11:13:58.082Z,9.00
2023-03-06T11:19:05.706Z,9.08
2023-03-06T11:24:16.449Z,8.16
2023-03-06T11:29:29.607Z,7.17
2023-03-06T11:34:41.191Z,7.20
2023-03-06T11:39:47.932Z,7.45
2023-03-06T11:45:03.327Z,9.37
2023-03-06T11:50:18.834Z,10.77
2023-03-06T11:55:34.593Z,9.28
2023-03-06T12:00:49.679Z,8.04
2023-03-06T12:06:03.861Z,7.36
2023-03-06T12:16:35.726Z,8.45
2023-03-06T12:21:51.711Z,9.17
2023-03-06T12:27:06.105Z,8.03
2023-03-06T12:32:21.151Z,7.40
2023-03-06T12:37:36.358Z,7.36
2023-03-06T12:43:03.157Z,7.47
2023-03-06T12:48:12.127Z,8.23
2023-03-06T12:53:22.176Z,8.89
2023-03-06T12:58:52.760Z,8.97
2023-03-06T13:04:13.412Z,9.55
2023-03-06T13:09:20.871Z,9.35
2023-03-06T13:14:26.273Z,10.41
2023-03-06T13:19:29.021Z,10.54
2023-03-06T13:24:35.066Z,9.44
2023-03-06T13:30:07.067Z,10.29
2023-03-06T13:35:52.461Z,9.60
2023-03-06T13:41:16.293Z,9.38
2023-03-06T13:46:24.997Z,9.48
2023-03-06T13:51:34.385Z,9.17
2023-03-06T13:57:04.761Z,9.08
2023-03-06T14:02:28.940Z,9.49
2023-03-06T14:07:32.596Z,10.33
2023-03-06T14:12:39.128Z,9.64
2023-03-06T14:17:54.145Z,9.39
2023-03-06T14:23:15.090Z,8.83
2023-03-06T14:28:26.660Z,8.17
2023-03-06T14:33:33.157Z,8.41
2023-03-06T14:38:43.388Z,7.89
2023-03-06T14:43:47.320Z,8.06
2023-03-06T14:48:50.735Z,7.88
2023-03-06T14:53:54.786Z,7.95
2023-03-06T14:59:01.788Z,7.57
2023-03-06T15:04:13.627Z,7.29
2023-03-06T15:09:20.544Z,7.03
2023-03-06T15:14:32.952Z,7.06
2023-03-06T15:19:40.298Z,7.20
2023-03-06T15:24:43.027Z,7.41
2023-03-06T15:29:47.304Z,7.67
2023-03-06T15:35:29.906Z,7.40
2023-03-06T15:40:33.262Z,7.11
2023-03-06T15:45:37.208Z,6.78
2023-03-06T15:50:39.888Z,6.41
2023-03-06T15:55:42.753Z,6.14
2023-03-06T16:00:46.882Z,6.03
2023-03-06T16:05:49.624Z,5.88
2023-03-06T16:10:52.451Z,5.74
2023-03-06T16:15:57.023Z,5.55
2023-03-06T16:21:00.649Z,5.05
2023-03-06T16:26:03.252Z,4.14
2023-03-06T16:31:07.345Z,3.81
2023-03-06T16:36:14.007Z,3.67
2023-03-06T16:41:17.261Z,3.67
2023-03-06T16:46:24.349Z,3.69
2023-03-06T16:51:26.915Z,3.64
2023-03-06T16:56:29.484Z,3.70
2023-03-06T17:01:33.527Z,3.69
2023-03-06T17:06:36.339Z,3.72
2023-03-06T17:11:39.500Z,3.68
2023-03-06T17:16:43.494Z,3.73
2023-03-06T17:21:46.108Z,3.70
2023-03-06T17:26:48.919Z,3.65
2023-03-06T17:31:52.884Z,3.56
2023-03-06T17:36:56.179Z,3.46
2023-03-06T17:41:58.794Z,3.42
2023-03-06T17:47:03.439Z,3.38
2023-03-06T17:52:06.523Z,3.33
2023-03-06T17:57:09.055Z,3.33
2023-03-06T18:02:13.336Z,3.31
2023-03-06T18:07:15.919Z,3.27
2023-03-06T18:12:18.487Z,3.25
2023-03-06T18:17:22.608Z,3.22
2023-03-06T18:22:25.271Z,3.20
2023-03-06T18:27:27.844Z,3.20
2023-03-06T18:32:31.987Z,3.11
2023-03-06T18:37:34.580Z,3.06
2023-03-06T18:42:37.144Z,2.96
2023-03-06T18:47:41.661Z,2.91
2023-03-06T18:52:44.493Z,2.86
2023-03-06T18:57:47.108Z,2.77
2023-03-06T19:02:50.994Z,2.78
2023-03-06T19:07:53.551Z,2.75
2023-03-06T19:12:56.084Z,2.75
2023-03-06T19:18:00.406Z,2.78
2023-03-06T19:23:02.915Z,2.78
2023-03-06T19:28:05.555Z,2.81
2023-03-06T19:33:09.468Z,2.86
2023-03-06T19:38:12.097Z,2.89
2023-03-06T19:43:14.662Z,2.86
2023-03-06T19:48:18.559Z,2.84
2023-03-06T19:53:21.680Z,2.82
2023-03-06T19:58:24.232Z,2.82
2023-03-06T20:03:28.080Z,2.78
2023-03-06T20:08:30.676Z,2.73
2023-03-06T20:13:34.289Z,2.69
2023-03-06T20:18:38.078Z,2.68
2023-03-06T20:23:40.900Z,2.67
2023-03-06T20:28:43.924Z,2.63
2023-03-06T20:33:49.953Z,2.63
2023-03-06T20:38:52.587Z,2.64
2023-03-06T20:43:55.490Z,2.61
2023-03-06T20:48:59.604Z,2.57
2023-03-06T20:54:03.146Z,2.54
2023-03-06T20:59:06.742Z,2.52
2023-03-06T21:04:11.046Z,2.48
2023-03-06T21:09:14.747Z,2.45
2023-03-06T21:14:17.161Z,2.41
2023-03-06T21:19:21.049Z,2.38
2023-03-06T21:24:23.605Z,2.33
2023-03-06T21:29:26.172Z,2.27
2023-03-06T21:34:30.152Z,2.26
2023-03-06T21:39:32.733Z,2.23
2023-03-06T21:44:35.317Z,2.25
2023-03-06T21:49:39.454Z,2.24
2023-03-06T21:54:42.069Z,2.23
2023-03-06T21:59:44.616Z,2.25
2023-03-06T22:04:52.535Z,2.21
2023-03-06T22:09:55.788Z,2.26
2023-03-06T22:14:58.380Z,2.26
2023-03-06T22:20:02.344Z,2.27
2023-03-06T22:25:05.875Z,2.31
2023-03-06T22:30:09.929Z,2.36
2023-03-06T22:35:13.836Z,2.41
2023-03-06T22:40:16.736Z,2.46
2023-03-06T22:45:19.300Z,2.54
2023-03-06T22:50:23.222Z,2.64
2023-03-06T22:55:26.514Z,2.71
2023-03-06T23:00:29.196Z,2.81
2023-03-06T23:05:33.111Z,2.84
2023-03-06T23:10:38.077Z,2.90
2023-03-06T23:15:40.755Z,2.99
2023-03-06T23:20:45.321Z,3.05
2023-03-06T23:25:47.947Z,3.10
2023-03-06T23:30:51.012Z,3.17
2023-03-06T23:35:55.126Z,3.22
2023-03-06T23:40:57.772Z,3.27
2023-03-06T23:46:00.995Z,3.30
2023-03-06T23:51:08.231Z,3.36
2023-03-06T23:56:11.524Z,3.36
